Time;durP1;ratioP1;P1;durP2;ratioP2;P2;SDS_P1;SDS_P2;PMS_P1;PMS_P2;Temp;Humidity;BMP_temperature;BMP_pressure;BME280_temperature;BME280_humidity;BME280_pressure;Samples;Min_cycle;Max_cycle;Signal;HPM_P1;HPM_P2
2023/09/18 00:01:20;;;;;;;12.00;4.97;;;18.50;99.90;;;;;;5010170;28;20811;-70
2023/09/18 00:03:48;;;;;;;10.50;4.93;;;18.50;99.90;;;;;;5001982;28;20533;-69
2023/09/18 00:06:16;;;;;;;9.40;4.03;;;18.40;99.90;;;;;;5009501;28;20457;-69
2023/09/18 00:08:46;;;;;;;7.87;3.53;;;18.30;99.90;;;;;;5008798;28;20473;-68
2023/09/18 00:11:14;;;;;;;11.10;4.43;;;18.30;99.90;;;;;;5009684;28;20824;-68
2023/09/18 00:13:42;;;;;;;9.80;4.13;;;18.30;99.90;;;;;;5009220;28;21011;-69
2023/09/18 00:16:10;;;;;;;9.17;4.00;;;18.40;99.90;;;;;;5009378;28;20508;-65
2023/09/18 00:18:38;;;;;;;9.67;4.33;;;18.50;99.90;;;;;;5009345;28;20462;-68
2023/09/18 00:21:06;;;;;;;10.10;3.97;;;18.50;99.90;;;;;;5009424;28;20449;-69
2023/09/18 00:23:35;;;;;;;10.60;4.77;;;18.40;99.90;;;;;;5009222;28;20449;-69
2023/09/18 00:26:04;;;;;;;12.53;4.87;;;18.30;99.90;;;;;;5009458;28;20457;-68
2023/09/18 00:28:32;;;;;;;10.90;5.20;;;18.20;99.90;;;;;;5008277;28;20480;-69
2023/09/18 00:31:00;;;;;;;12.80;4.93;;;18.20;99.90;;;;;;5009123;28;20525;-68
2023/09/18 00:33:28;;;;;;;10.57;4.50;;;18.30;99.90;;;;;;5009263;28;20491;-69
2023/09/18 00:35:56;;;;;;;10.63;5.07;;;18.50;99.90;;;;;;5009026;28;20454;-68
2023/09/18 00:38:24;;;;;;;11.17;4.60;;;18.50;99.90;;;;;;5008464;28;20469;-67
2023/09/18 00:40:52;;;;;;;13.77;4.50;;;18.50;99.90;;;;;;5010725;28;20485;-69
2023/09/18 00:43:21;;;;;;;11.30;4.50;;;18.40;99.90;;;;;;5009214;28;20477;-68
2023/09/18 00:45:50;;;;;;;9.30;4.20;;;18.40;99.90;;;;;;5001037;28;20500;-69
2023/09/18 00:48:18;;;;;;;9.73;4.57;;;18.30;99.90;;;;;;5008397;28;21043;-69
2023/09/18 00:50:47;;;;;;;10.40;5.23;;;18.40;99.90;;;;;;5009256;28;20450;-69
2023/09/18 00:53:19;;;;;;;10.60;4.57;;;18.40;99.90;;;;;;5010502;28;20478;-69
2023/09/18 00:55:47;;;;;;;12.43;4.23;;;18.40;99.90;;;;;;5012489;28;20446;-70
2023/09/18 00:58:16;;;;;;;8.67;3.60;;;18.50;99.90;;;;;;5009965;28;20502;-69
2023/09/18 01:00:46;;;;;;;9.37;4.53;;;18.60;99.90;;;;;;5010044;28;21007;-69
2023/09/18 01:03:17;;;;;;;12.63;5.40;;;18.60;99.90;;;;;;5009150;28;20492;-69
2023/09/18 01:05:45;;;;;;;10.17;5.53;;;18.70;99.90;;;;;;5009054;28;21084;-69
2023/09/18 01:08:13;;;;;;;10.07;4.77;;;18.80;99.90;;;;;;5008417;28;20464;-68
2023/09/18 01:10:49;;;;;;;8.83;4.60;;;18.80;99.90;;;;;;5007383;28;20456;-69
2023/09/18 01:13:23;;;;;;;10.03;4.77;;;18.90;99.90;;;;;;5005986;28;20519;-68
2023/09/18 01:15:58;;;;;;;8.83;4.23;;;18.90;99.90;;;;;;5006301;28;20434;-68
2023/09/18 01:18:26;;;;;;;9.73;4.40;;;18.90;99.90;;;;;;5008132;28;20452;-68
2023/09/18 01:20:54;;;;;;;9.20;3.87;;;19.00;99.90;;;;;;5008678;28;20454;-69
2023/09/18 01:23:23;;;;;;;9.53;4.20;;;19.10;99.90;;;;;;5008886;28;20448;-69
2023/09/18 01:25:51;;;;;;;12.67;5.30;;;19.20;99.90;;;;;;5008954;28;20499;-68
2023/09/18 01:28:19;;;;;;;9.80;4.17;;;19.30;99.90;;;;;;5008498;28;20556;-69
2023/09/18 01:30:47;;;;;;;8.63;3.93;;;19.20;99.90;;;;;;5008526;28;20441;-69
2023/09/18 01:33:16;;;;;;;9.50;3.97;;;19.30;99.90;;;;;;5008909;28;20448;-69
2023/09/18 01:35:46;;;;;;;11.00;5.00;;;19.30;99.90;;;;;;5007790;28;20507;-69
2023/09/18 01:38:13;;;;;;;14.80;5.13;;;19.40;99.90;;;;;;5008313;28;20461;-68
2023/09/18 01:40:43;;;;;;;14.53;4.70;;;19.50;99.90;;;;;;5009707;28;21159;-67
2023/09/18 01:43:11;;;;;;;9.53;4.73;;;19.70;99.90;;;;;;5010897;28;20933;-68
2023/09/18 01:45:40;;;;;;;10.10;4.20;;;19.60;99.90;;;;;;5012071;28;20452;-68
2023/09/18 01:48:08;;;;;;;10.80;4.77;;;19.80;99.90;;;;;;5011981;28;20816;-68
2023/09/18 01:50:40;;;;;;;10.43;5.20;;;19.90;99.90;;;;;;5011985;28;20449;-68
2023/09/18 01:53:08;;;;;;;13.63;5.40;;;20.00;99.90;;;;;;5012193;28;20832;-68
2023/09/18 01:55:36;;;;;;;10.07;4.70;;;20.10;99.90;;;;;;5012130;28;20539;-68
2023/09/18 01:58:05;;;;;;;9.63;5.10;;;20.20;99.90;;;;;;5011604;28;20474;-68
2023/09/18 02:00:34;;;;;;;11.27;5.93;;;20.20;99.90;;;;;;5011840;28;20449;-66
2023/09/18 02:03:04;;;;;;;10.37;5.10;;;20.30;99.90;;;;;;5010613;28;20937;-68
2023/09/18 02:05:52;;;;;;;9.60;4.47;;;20.30;99.90;;;;;;5004070;28;20442;-69
2023/09/18 02:08:20;;;;;;;9.77;5.30;;;20.30;99.90;;;;;;5011522;28;20879;-69
2023/09/18 02:10:48;;;;;;;10.13;4.57;;;20.30;99.90;;;;;;5012361;28;20449;-68
2023/09/18 02:13:17;;;;;;;12.37;5.60;;;20.20;99.90;;;;;;5012276;28;20518;-68
2023/09/18 02:15:45;;;;;;;10.40;4.30;;;20.10;99.90;;;;;;5011726;28;21007;-68
2023/09/18 02:18:13;;;;;;;9.37;4.40;;;19.80;99.90;;;;;;5011477;28;20469;-68
2023/09/18 02:20:42;;;;;;;11.43;4.03;;;19.70;99.90;;;;;;5012042;28;20462;-69
2023/09/18 02:23:10;;;;;;;14.00;5.03;;;19.50;99.90;;;;;;5011962;28;20837;-69
2023/09/18 02:25:38;;;;;;;11.37;4.60;;;19.40;99.90;;;;;;5011338;28;20960;-68
2023/09/18 02:28:06;;;;;;;10.97;4.67;;;19.20;99.90;;;;;;5011194;28;20466;-68
2023/09/18 02:30:35;;;;;;;9.70;3.90;;;19.00;99.90;;;;;;5011421;28;20446;-68
2023/09/18 02:33:04;;;;;;;10.30;4.30;;;19.00;99.90;;;;;;5013681;28;20560;-68
2023/09/18 02:35:32;;;;;;;9.60;4.03;;;18.90;99.90;;;;;;5012384;28;20484;-68
2023/09/18 02:38:02;;;;;;;15.23;4.60;;;18.90;99.90;;;;;;5010980;28;20844;-68
2023/09/18 02:40:30;;;;;;;10.33;4.70;;;18.90;99.90;;;;;;5011252;28;20453;-68
2023/09/18 02:42:58;;;;;;;10.90;4.43;;;19.00;99.90;;;;;;5010907;28;20452;-68
2023/09/18 02:45:26;;;;;;;10.70;4.17;;;19.00;99.90;;;;;;5011382;28;20873;-69
2023/09/18 02:47:55;;;;;;;10.30;4.00;;;18.90;99.90;;;;;;5002439;28;20473;-68
2023/09/18 02:50:23;;;;;;;11.83;4.37;;;18.90;99.90;;;;;;5011258;28;20568;-67
2023/09/18 02:52:51;;;;;;;9.87;4.67;;;18.80;99.90;;;;;;5010071;28;20438;-69
2023/09/18 02:55:19;;;;;;;12.03;4.03;;;18.70;99.90;;;;;;5010713;28;20999;-68
2023/09/18 02:57:47;;;;;;;12.93;4.33;;;18.90;99.90;;;;;;5009965;28;20478;-68
2023/09/18 03:00:16;;;;;;;14.80;4.40;;;19.10;99.90;;;;;;5010784;28;20446;-69
2023/09/18 03:02:44;;;;;;;11.73;3.10;;;19.30;99.90;;;;;;5010794;28;20449;-68
2023/09/18 03:05:13;;;;;;;9.10;3.20;;;19.50;99.90;;;;;;5010996;28;20445;-68
2023/09/18 03:07:42;;;;;;;13.50;3.87;;;19.50;99.90;;;;;;5010043;28;20474;-69
2023/09/18 03:10:13;;;;;;;14.10;3.60;;;19.50;99.90;;;;;;5012296;28;20539;-68
2023/09/18 03:12:41;;;;;;;10.63;3.57;;;19.50;99.90;;;;;;5010357;28;20456;-68
2023/09/18 03:15:11;;;;;;;12.07;3.30;;;19.50;99.90;;;;;;5010710;28;20477;-68
2023/09/18 03:17:40;;;;;;;10.63;3.70;;;19.40;99.90;;;;;;5009847;28;20478;-68
2023/09/18 03:20:09;;;;;;;11.97;3.70;;;19.30;99.90;;;;;;5010555;28;20529;-69
2023/09/18 03:22:39;;;;;;;12.50;3.40;;;19.10;99.90;;;;;;5010211;28;20461;-68
2023/09/18 03:25:08;;;;;;;12.97;3.90;;;18.80;99.90;;;;;;5010496;28;20450;-68
2023/09/18 03:27:36;;;;;;;11.27;4.20;;;18.70;99.90;;;;;;5009751;28;20853;-68
2023/09/18 03:30:04;;;;;;;12.70;4.37;;;18.60;99.90;;;;;;5010564;28;20442;-69
2023/09/18 03:32:32;;;;;;;12.00;3.57;;;18.50;99.90;;;;;;5010279;28;20458;-68
2023/09/18 03:35:00;;;;;;;16.50;4.47;;;18.40;99.90;;;;;;5010139;28;20891;-69
2023/09/18 03:37:28;;;;;;;11.67;3.80;;;18.40;99.90;;;;;;5009578;28;20954;-69
2023/09/18 03:39:57;;;;;;;12.63;3.50;;;18.30;99.90;;;;;;5002286;28;20450;-68
2023/09/18 03:42:27;;;;;;;9.97;3.70;;;18.30;99.90;;;;;;5009924;28;20446;-69
2023/09/18 03:44:55;;;;;;;12.80;3.70;;;18.50;99.90;;;;;;5001731;28;20446;-68
2023/09/18 03:47:23;;;;;;;11.60;4.17;;;18.70;99.90;;;;;;5009403;28;20524;-69
2023/09/18 03:49:50;;;;;;;12.80;3.80;;;18.80;99.90;;;;;;5009982;28;20442;-69
2023/09/18 03:52:18;;;;;;;11.40;3.60;;;18.90;99.90;;;;;;5009953;28;20512;-67
2023/09/18 03:54:46;;;;;;;9.50;3.40;;;19.00;99.90;;;;;;5009594;28;21020;-68
2023/09/18 03:57:16;;;;;;;14.20;3.63;;;18.90;99.90;;;;;;5009271;28;21021;-68
2023/09/18 03:59:44;;;;;;;13.50;4.40;;;18.90;99.90;;;;;;5009862;28;20489;-68
2023/09/18 04:02:11;;;;;;;11.73;3.70;;;18.90;99.90;;;;;;5009814;28;20450;-71
2023/09/18 04:04:39;;;;;;;12.43;3.83;;;19.00;99.90;;;;;;5009592;28;20507;-70
2023/09/18 04:07:08;;;;;;;14.30;4.53;;;19.10;99.90;;;;;;5009156;28;20456;-70
2023/09/18 04:09:36;;;;;;;16.03;4.30;;;19.10;99.90;;;;;;5009436;28;20550;-70
2023/09/18 04:12:06;;;;;;;12.43;3.17;;;19.20;99.90;;;;;;5009742;28;20492;-69
2023/09/18 04:14:35;;;;;;;11.97;3.80;;;19.10;99.90;;;;;;5009059;28;20450;-69
2023/09/18 04:17:04;;;;;;;12.77;3.60;;;19.10;99.90;;;;;;5009223;28;20446;-70
2023/09/18 04:19:32;;;;;;;13.57;3.47;;;19.20;99.90;;;;;;5009553;28;20584;-70
2023/09/18 04:22:00;;;;;;;12.40;3.50;;;19.20;99.90;;;;;;5009319;28;20480;-71
2023/09/18 04:24:28;;;;;;;12.00;4.80;;;19.20;99.90;;;;;;5011752;28;20883;-67
2023/09/18 04:26:59;;;;;;;13.90;4.60;;;19.10;99.90;;;;;;5001436;28;20517;-67
2023/09/18 04:29:27;;;;;;;10.40;3.47;;;19.00;99.90;;;;;;5009988;28;20893;-68
2023/09/18 04:31:57;;;;;;;10.50;3.47;;;19.00;99.90;;;;;;5010427;28;20438;-68
2023/09/18 04:34:25;;;;;;;13.27;3.60;;;18.90;99.90;;;;;;5009795;28;20450;-69
2023/09/18 04:36:53;;;;;;;11.03;3.07;;;18.80;99.90;;;;;;5008636;28;20543;-68
2023/09/18 04:39:22;;;;;;;10.07;3.47;;;18.70;99.90;;;;;;5009444;28;20465;-71
2023/09/18 04:41:50;;;;;;;12.43;4.53;;;18.60;99.90;;;;;;5009394;28;20523;-69
2023/09/18 04:44:18;;;;;;;12.13;4.10;;;18.50;99.90;;;;;;5009733;28;20453;-70
2023/09/18 04:46:46;;;;;;;13.77;3.97;;;18.50;99.90;;;;;;5009086;28;20438;-70
2023/09/18 04:49:15;;;;;;;12.40;3.97;;;18.50;99.90;;;;;;5009071;28;20961;-69
2023/09/18 04:51:43;;;;;;;9.37;3.70;;;18.50;99.90;;;;;;5009004;28;20461;-70
2023/09/18 04:54:12;;;;;;;14.07;4.80;;;18.50;99.90;;;;;;5008832;28;20964;-67
2023/09/18 04:56:40;;;;;;;11.23;4.50;;;18.50;99.90;;;;;;5008723;28;20478;-68
2023/09/18 04:59:08;;;;;;;15.90;4.57;;;18.40;99.90;;;;;;5004111;28;20482;-69
2023/09/18 05:01:36;;;;;;;13.47;4.30;;;18.40;99.90;;;;;;5001843;28;20450;-68
2023/09/18 05:04:05;;;;;;;11.13;4.10;;;18.40;99.90;;;;;;5008734;28;20555;-68
2023/09/18 05:06:34;;;;;;;12.60;4.30;;;18.50;99.90;;;;;;5008004;28;20450;-68
2023/09/18 05:09:02;;;;;;;13.47;4.63;;;18.70;99.90;;;;;;5006982;28;20476;-69
2023/09/18 05:11:31;;;;;;;12.87;4.90;;;18.80;99.90;;;;;;5008384;28;20456;-69
2023/09/18 05:13:59;;;;;;;14.70;5.47;;;18.80;99.90;;;;;;5007770;28;20496;-68
2023/09/18 05:16:28;;;;;;;8.97;3.73;;;18.80;99.90;;;;;;5008788;28;20586;-69
2023/09/18 05:18:56;;;;;;;10.70;4.40;;;18.80;99.90;;;;;;5012423;28;20465;-69
2023/09/18 05:21:26;;;;;;;14.30;4.03;;;18.80;99.90;;;;;;5008302;28;20486;-70
2023/09/18 05:23:55;;;;;;;12.47;4.90;;;18.80;99.90;;;;;;5011415;28;20517;-69
2023/09/18 05:26:24;;;;;;;15.87;5.13;;;18.80;99.90;;;;;;5012159;28;20438;-69
2023/09/18 05:28:54;;;;;;;11.90;4.07;;;18.80;99.90;;;;;;5012785;28;20549;-69
2023/09/18 05:31:22;;;;;;;10.37;3.33;;;19.00;99.90;;;;;;5012270;28;20981;-68
2023/09/18 05:33:50;;;;;;;11.27;4.80;;;19.10;99.90;;;;;;5008641;28;20469;-70
2023/09/18 05:36:18;;;;;;;9.70;3.23;;;19.20;99.90;;;;;;5012112;28;20491;-68
2023/09/18 05:38:46;;;;;;;13.73;4.47;;;19.20;99.90;;;;;;5012355;28;20565;-68
2023/09/18 05:41:15;;;;;;;10.23;3.60;;;19.20;99.90;;;;;;5012495;28;20976;-68
2023/09/18 05:43:44;;;;;;;13.83;3.67;;;19.20;99.90;;;;;;5011351;28;20708;-68
2023/09/18 05:46:11;;;;;;;10.60;3.50;;;19.20;99.90;;;;;;5012069;28;20441;-67
2023/09/18 05:48:39;;;;;;;10.80;3.70;;;19.10;99.90;;;;;;5012285;28;20473;-68
2023/09/18 05:51:07;;;;;;;12.43;3.60;;;19.10;99.90;;;;;;5012368;28;20519;-68
2023/09/18 05:53:37;;;;;;;10.47;3.10;;;19.20;99.90;;;;;;5012313;28;20533;-68
2023/09/18 05:56:05;;;;;;;11.03;3.70;;;19.40;99.90;;;;;;5012127;28;20485;-69
2023/09/18 05:58:35;;;;;;;15.30;3.40;;;19.50;99.90;;;;;;5011917;28;20477;-69
2023/09/18 06:01:03;;;;;;;10.40;3.70;;;19.60;99.90;;;;;;5008532;28;20449;-68
2023/09/18 06:03:35;;;;;;;11.47;3.80;;;19.70;99.90;;;;;;5012351;28;20446;-68
2023/09/18 06:06:03;;;;;;;10.67;3.30;;;19.70;99.90;;;;;;5007349;28;20527;-69
2023/09/18 06:08:31;;;;;;;11.43;3.17;;;19.80;99.90;;;;;;5008251;28;20468;-68
2023/09/18 06:10:59;;;;;;;11.37;3.93;;;19.80;99.90;;;;;;5005272;28;20849;-67
2023/09/18 06:13:28;;;;;;;13.30;3.30;;;19.80;99.90;;;;;;5010950;28;20446;-67
2023/09/18 06:15:58;;;;;;;11.90;2.70;;;19.90;99.90;;;;;;5010620;28;20477;-68
2023/09/18 06:18:26;;;;;;;11.90;3.47;;;19.90;99.90;;;;;;5010565;28;20469;-69
2023/09/18 06:20:54;;;;;;;9.73;3.23;;;19.90;99.90;;;;;;5011247;28;20454;-68
2023/09/18 06:23:22;;;;;;;10.13;3.40;;;19.80;99.90;;;;;;5010150;28;20461;-69
2023/09/18 06:25:55;;;;;;;12.50;2.97;;;19.60;99.90;;;;;;5010296;28;20532;-69
2023/09/18 06:28:24;;;;;;;13.40;3.70;;;19.40;99.90;;;;;;5011401;28;20548;-68
2023/09/18 06:30:52;;;;;;;10.57;3.10;;;19.30;99.90;;;;;;5011383;28;20446;-69
2023/09/18 06:33:22;;;;;;;10.10;3.53;;;19.20;99.90;;;;;;5011482;28;20446;-69
2023/09/18 06:35:51;;;;;;;10.60;3.03;;;19.10;99.90;;;;;;5011103;28;20530;-68
2023/09/18 06:38:20;;;;;;;12.23;3.37;;;19.10;99.90;;;;;;5010697;28;20487;-68
2023/09/18 06:40:50;;;;;;;13.90;4.47;;;19.10;99.90;;;;;;5011122;28;20880;-68
2023/09/18 06:43:18;;;;;;;10.93;2.90;;;19.10;99.90;;;;;;5011278;28;20960;-68
2023/09/18 06:45:46;;;;;;;11.70;3.73;;;19.10;99.90;;;;;;5011117;28;20929;-68
2023/09/18 06:48:14;;;;;;;12.20;3.40;;;19.30;99.90;;;;;;5010737;28;21036;-68
2023/09/18 06:50:43;;;;;;;10.80;2.87;;;19.30;99.90;;;;;;5010969;28;20453;-69
2023/09/18 06:53:11;;;;;;;9.13;2.90;;;19.30;99.90;;;;;;5011000;28;20450;-69
2023/09/18 06:55:39;;;;;;;11.00;4.30;;;19.30;99.90;;;;;;5011119;28;20449;-68
2023/09/18 06:58:07;;;;;;;10.00;3.13;;;19.30;99.90;;;;;;5010306;28;20488;-68
2023/09/18 07:00:35;;;;;;;9.60;2.80;;;19.30;99.90;;;;;;5011110;28;20953;-68
2023/09/18 07:03:03;;;;;;;12.23;3.40;;;19.40;99.90;;;;;;5003365;28;20456;-69
2023/09/18 07:05:32;;;;;;;10.87;2.67;;;19.40;99.90;;;;;;5010819;28;20445;-68
2023/09/18 07:08:02;;;;;;;15.70;2.80;;;19.40;99.90;;;;;;5010179;28;20453;-68
2023/09/18 07:10:30;;;;;;;12.40;3.50;;;19.40;99.90;;;;;;5011204;28;20438;-69
2023/09/18 07:12:58;;;;;;;11.53;3.50;;;19.40;99.90;;;;;;5011019;28;20442;-69
2023/09/18 07:15:26;;;;;;;9.90;3.00;;;19.50;99.90;;;;;;5011084;28;20450;-67
2023/09/18 07:17:54;;;;;;;11.07;3.67;;;19.50;99.90;;;;;;5010155;28;20488;-69
2023/09/18 07:20:23;;;;;;;10.80;3.20;;;19.50;99.90;;;;;;5011055;28;20454;-68
2023/09/18 07:22:52;;;;;;;14.63;3.80;;;19.60;99.90;;;;;;5010558;28;20513;-69
2023/09/18 07:25:21;;;;;;;10.50;2.97;;;19.70;99.90;;;;;;5010545;28;20532;-68
2023/09/18 07:27:49;;;;;;;12.43;3.60;;;19.90;99.90;;;;;;5009932;28;20469;-69
2023/09/18 07:30:19;;;;;;;15.83;3.90;;;19.90;99.90;;;;;;5010630;28;20446;-67
2023/09/18 07:32:47;;;;;;;10.40;2.90;;;20.00;99.90;;;;;;5010535;28;20442;-68
2023/09/18 07:35:15;;;;;;;15.17;3.50;;;20.10;99.90;;;;;;5010494;28;20508;-67
2023/09/18 07:37:46;;;;;;;9.90;3.00;;;20.10;99.90;;;;;;5009512;28;20588;-67
2023/09/18 07:40:15;;;;;;;9.20;3.90;;;20.10;99.90;;;;;;5010117;28;20446;-68
2023/09/18 07:42:44;;;;;;;15.50;3.60;;;20.10;99.90;;;;;;5009876;28;20478;-67
2023/09/18 07:45:13;;;;;;;11.10;2.83;;;20.10;99.90;;;;;;5009989;28;20879;-68
2023/09/18 07:47:41;;;;;;;11.47;3.00;;;20.20;99.90;;;;;;5009500;28;20465;-68
2023/09/18 07:50:09;;;;;;;10.07;2.57;;;20.20;99.90;;;;;;5009929;28;20449;-67
2023/09/18 07:52:37;;;;;;;11.23;2.10;;;20.40;99.90;;;;;;5010139;28;20508;-68
2023/09/18 07:55:06;;;;;;;12.10;2.00;;;20.50;99.90;;;;;;5010136;28;20878;-68
2023/09/18 07:57:34;;;;;;;11.83;2.43;;;20.60;99.90;;;;;;5009207;28;20484;-69
2023/09/18 08:00:11;;;;;;;8.63;2.27;;;20.70;99.90;;;;;;5009810;28;20446;-68
2023/09/18 08:02:39;;;;;;;9.23;2.03;;;20.90;99.90;;;;;;5008601;28;20457;-69
2023/09/18 08:05:08;;;;;;;12.87;2.53;;;21.10;99.90;;;;;;5009928;28;20206;-68
2023/09/18 08:07:37;;;;;;;11.30;2.20;;;21.40;99.90;;;;;;5009379;28;21198;-68
2023/09/18 08:10:08;;;;;;;8.30;2.00;;;21.70;99.90;;;;;;5001817;28;20540;-68
2023/09/18 08:12:38;;;;;;;10.00;2.00;;;21.90;99.90;;;;;;5009845;28;20469;-68
2023/09/18 08:15:09;;;;;;;8.73;2.40;;;22.20;99.90;;;;;;5009720;28;20925;-68
2023/09/18 08:17:37;;;;;;;8.50;1.57;;;22.40;99.90;;;;;;5009133;28;20568;-69
2023/09/18 08:20:12;;;;;;;10.13;1.70;;;22.60;99.90;;;;;;5001721;28;20808;-69
2023/09/18 08:22:41;;;;;;;10.63;1.80;;;22.70;99.90;;;;;;5009461;28;20445;-68
2023/09/18 08:25:10;;;;;;;7.70;1.60;;;22.70;99.90;;;;;;5009585;28;20469;-68
2023/09/18 08:27:41;;;;;;;10.80;4.40;;;22.70;99.90;;;;;;5008882;28;20473;-68
2023/09/18 08:30:12;;;;;;;8.70;1.93;;;22.60;99.90;;;;;;5002321;28;20473;-67
2023/09/18 08:32:40;;;;;;;9.43;1.50;;;22.40;99.90;;;;;;5009262;28;20533;-67
2023/09/18 08:35:09;;;;;;;8.30;1.80;;;22.40;99.90;;;;;;5009533;28;20812;-67
2023/09/18 08:37:37;;;;;;;7.07;1.10;;;22.10;99.90;;;;;;5009167;28;20490;-67
2023/09/18 08:40:09;;;;;;;11.57;2.00;;;21.80;99.90;;;;;;5001748;28;20438;-67
2023/09/18 08:42:40;;;;;;;8.60;1.83;;;21.60;99.90;;;;;;5009490;28;20504;-67
2023/09/18 08:45:15;;;;;;;7.57;1.27;;;21.40;99.90;;;;;;5009481;28;20529;-67
2023/09/18 08:47:44;;;;;;;7.20;1.10;;;21.30;99.90;;;;;;5008480;28;20493;-68
2023/09/18 08:50:13;;;;;;;7.33;1.30;;;21.10;99.90;;;;;;5009704;28;21236;-68
2023/09/18 08:52:42;;;;;;;7.60;1.30;;;20.90;99.90;;;;;;5013150;28;20441;-67
2023/09/18 08:55:10;;;;;;;6.57;1.10;;;20.80;99.90;;;;;;5013399;28;20450;-68
2023/09/18 08:57:40;;;;;;;8.00;1.27;;;20.60;99.90;;;;;;5012435;28;20493;-67
2023/09/18 09:00:11;;;;;;;9.20;1.00;;;20.40;99.90;;;;;;5013146;28;20470;-67
2023/09/18 09:02:41;;;;;;;9.60;1.80;;;20.30;99.90;;;;;;5013149;28;20441;-68
2023/09/18 09:05:09;;;;;;;6.60;1.30;;;20.20;99.90;;;;;;5013351;28;20992;-68
2023/09/18 09:07:37;;;;;;;7.37;1.50;;;19.90;99.90;;;;;;5012704;28;20460;-67
2023/09/18 09:10:05;;;;;;;8.30;1.63;;;19.60;99.90;;;;;;5005162;28;20540;-68
2023/09/18 09:12:50;;;;;;;9.90;1.60;;;19.30;99.90;;;;;;5013016;28;20449;-67
2023/09/18 09:15:18;;;;;;;7.80;1.33;;;19.00;99.90;;;;;;5013166;28;20523;-68
2023/09/18 09:17:48;;;;;;;8.87;1.37;;;18.90;99.90;;;;;;5012275;28;20581;-68
2023/09/18 09:20:18;;;;;;;7.53;1.30;;;18.90;99.90;;;;;;5013088;28;20537;-68
2023/09/18 09:22:46;;;;;;;9.00;1.70;;;18.80;99.90;;;;;;5012893;28;20452;-68
2023/09/18 09:25:28;;;;;;;8.70;2.20;;;18.90;99.90;;;;;;5012901;28;20446;-69
2023/09/18 09:27:56;;;;;;;7.73;1.23;;;18.90;99.90;;;;;;5012477;28;20508;-68
2023/09/18 09:30:26;;;;;;;8.00;1.33;;;19.10;99.90;;;;;;5013247;28;20453;-66
2023/09/18 09:32:57;;;;;;;7.70;1.63;;;19.00;99.90;;;;;;5012876;28;20445;-67
2023/09/18 09:35:28;;;;;;;7.30;1.27;;;19.20;99.90;;;;;;5012864;28;20454;-68
2023/09/18 09:38:00;;;;;;;8.33;1.50;;;19.20;99.90;;;;;;5012280;28;20482;-67
2023/09/18 09:40:30;;;;;;;7.87;1.47;;;19.10;99.90;;;;;;5013008;28;20453;-68
2023/09/18 09:43:01;;;;;;;9.70;1.60;;;19.10;99.90;;;;;;5012710;28;20922;-67
2023/09/18 09:45:30;;;;;;;7.57;1.50;;;19.00;99.90;;;;;;5012764;28;20453;-68
2023/09/18 09:48:02;;;;;;;8.50;1.60;;;19.10;99.90;;;;;;5011827;28;20916;-68
2023/09/18 09:50:30;;;;;;;7.70;1.80;;;19.00;99.90;;;;;;5012442;28;21060;-68
2023/09/18 09:52:58;;;;;;;8.83;2.00;;;19.10;99.90;;;;;;5012465;28;20453;-68
2023/09/18 09:55:28;;;;;;;7.97;1.60;;;19.40;99.90;;;;;;5012348;28;20449;-67
2023/09/18 09:57:59;;;;;;;7.03;1.40;;;19.60;99.90;;;;;;5011331;28;21003;-67
2023/09/18 10:00:36;;;;;;;8.83;1.23;;;19.60;99.90;;;;;;5012097;28;20487;-69
2023/09/18 10:03:09;;;;;;;8.77;1.47;;;19.70;99.90;;;;;;5011532;28;20445;-69
2023/09/18 10:05:40;;;;;;;7.67;1.57;;;19.70;99.90;;;;;;5012287;28;20446;-69
2023/09/18 10:08:12;;;;;;;7.30;1.57;;;19.70;99.90;;;;;;5011665;28;20532;-66
2023/09/18 10:10:46;;;;;;;9.57;1.67;;;19.70;99.90;;;;;;5012094;28;20442;-66
2023/09/18 10:13:18;;;;;;;9.37;1.50;;;19.80;99.90;;;;;;5004911;28;20474;-67
2023/09/18 10:15:49;;;;;;;7.87;1.50;;;20.00;99.90;;;;;;5011697;28;20517;-69
2023/09/18 10:18:43;;;;;;;9.10;1.93;;;20.20;99.90;;;;;;5011443;28;20489;-69
2023/09/18 10:21:16;;;;;;;9.50;2.20;;;20.20;99.90;;;;;;5011818;28;20434;-67
2023/09/18 10:23:57;;;;;;;9.63;1.83;;;20.20;99.90;;;;;;5011909;28;20511;-68
2023/09/18 10:26:29;;;;;;;9.50;1.60;;;19.90;99.90;;;;;;5011754;28;20524;-67
2023/09/18 10:28:59;;;;;;;7.60;1.60;;;19.70;99.90;;;;;;5011673;28;20464;-68
2023/09/18 10:31:28;;;;;;;7.47;1.80;;;19.70;99.90;;;;;;5011870;28;20446;-66
2023/09/18 10:33:59;;;;;;;7.97;2.00;;;19.50;99.90;;;;;;5011333;28;20446;-68
2023/09/18 10:36:28;;;;;;;9.10;2.20;;;19.40;99.90;;;;;;5011185;28;20448;-67
2023/09/18 10:39:04;;;;;;;7.63;1.77;;;19.30;99.90;;;;;;5011357;28;20525;-67
2023/09/18 10:41:34;;;;;;;8.30;1.90;;;19.20;99.90;;;;;;5011550;28;20446;-68
2023/09/18 10:44:04;;;;;;;9.63;2.30;;;19.10;99.90;;;;;;5011303;28;20456;-69
2023/09/18 10:46:32;;;;;;;7.27;1.30;;;19.10;99.90;;;;;;5010795;28;20446;-69
2023/09/18 10:49:03;;;;;;;8.07;1.90;;;19.00;99.90;;;;;;5011444;28;20553;-69
2023/09/18 10:51:33;;;;;;;7.63;1.73;;;19.00;99.90;;;;;;5011156;28;20449;-69
2023/09/18 10:54:01;;;;;;;8.30;2.20;;;19.00;99.90;;;;;;5011227;28;20873;-71
2023/09/18 10:56:31;;;;;;;8.40;2.20;;;19.00;99.90;;;;;;5010756;28;20446;-67
2023/09/18 10:59:00;;;;;;;8.80;2.20;;;19.10;99.90;;;;;;5010599;28;20988;-67
2023/09/18 11:01:30;;;;;;;8.20;2.13;;;19.30;99.90;;;;;;5011184;28;20541;-67
2023/09/18 11:04:04;;;;;;;9.87;1.77;;;19.40;99.90;;;;;;5011095;28;20458;-67
2023/09/18 11:07:03;;;;;;;8.17;2.47;;;19.50;99.90;;;;;;5010649;28;20446;-67
2023/09/18 11:09:33;;;;;;;8.10;1.80;;;19.40;99.90;;;;;;5011156;28;20472;-66
2023/09/18 11:12:06;;;;;;;10.73;2.90;;;19.30;99.90;;;;;;5011110;28;20438;-68
2023/09/18 11:14:45;;;;;;;8.10;1.30;;;19.30;99.90;;;;;;5010093;28;20450;-68
2023/09/18 11:17:34;;;;;;;7.23;1.30;;;19.20;99.90;;;;;;5003224;28;20452;-68
2023/09/18 11:20:08;;;;;;;9.80;1.80;;;19.10;99.90;;;;;;5011028;28;20497;-68
2023/09/18 11:22:37;;;;;;;9.37;1.80;;;19.20;99.90;;;;;;5011016;28;20799;-67
2023/09/18 11:25:35;;;;;;;8.80;2.07;;;19.20;99.90;;;;;;5010838;28;20866;-68
2023/09/18 11:28:06;;;;;;;7.40;1.53;;;19.20;99.90;;;;;;5010246;28;20844;-69
2023/09/18 11:30:36;;;;;;;7.40;1.47;;;19.30;99.90;;;;;;5010785;28;20864;-68
2023/09/18 11:33:05;;;;;;;6.70;1.60;;;19.30;99.90;;;;;;5010566;28;20445;-69
2023/09/18 11:35:35;;;;;;;8.20;1.53;;;19.40;99.90;;;;;;5010663;28;20449;-68
2023/09/18 11:38:09;;;;;;;10.73;1.70;;;19.50;99.90;;;;;;5010040;28;20466;-68
2023/09/18 11:40:42;;;;;;;8.87;1.60;;;19.50;99.90;;;;;;5011117;28;21023;-68
2023/09/18 11:43:26;;;;;;;6.93;1.77;;;19.50;99.90;;;;;;5009958;28;20445;-66
2023/09/18 11:45:56;;;;;;;7.77;1.83;;;19.40;99.90;;;;;;5005222;28;20485;-67
2023/09/18 11:48:29;;;;;;;7.23;1.70;;;19.40;99.90;;;;;;5003893;28;20883;-67
2023/09/18 11:51:03;;;;;;;8.20;1.70;;;19.50;99.90;;;;;;5002803;28;20443;-67
2023/09/18 11:53:36;;;;;;;7.33;1.50;;;19.60;99.90;;;;;;5003882;28;20517;-68
2023/09/18 11:56:05;;;;;;;10.50;1.63;;;19.70;99.90;;;;;;5003689;28;20437;-68
2023/09/18 11:58:45;;;;;;;7.67;1.53;;;19.70;99.90;;;;;;5004197;28;20605;-67
2023/09/18 12:01:15;;;;;;;11.30;1.93;;;19.80;99.90;;;;;;5010716;28;20434;-67
2023/09/18 12:03:44;;;;;;;7.97;1.50;;;19.90;99.90;;;;;;5010568;28;20446;-68
2023/09/18 12:06:15;;;;;;;6.87;1.10;;;20.20;99.90;;;;;;5002166;28;20814;-67
2023/09/18 12:08:44;;;;;;;6.83;1.53;;;20.40;99.90;;;;;;5010042;28;20545;-68
2023/09/18 12:11:16;;;;;;;7.57;1.60;;;20.40;99.90;;;;;;5002552;28;20477;-66
2023/09/18 12:13:48;;;;;;;7.13;1.50;;;20.40;99.90;;;;;;5010166;28;20534;-67
2023/09/18 12:16:17;;;;;;;7.00;1.50;;;20.40;99.90;;;;;;5009784;28;20917;-68
2023/09/18 12:18:49;;;;;;;9.80;1.50;;;20.50;99.90;;;;;;5009911;28;20536;-68
2023/09/18 12:21:18;;;;;;;7.57;1.60;;;20.60;99.90;;;;;;5010093;28;20493;-69
2023/09/18 12:23:48;;;;;;;7.80;1.53;;;20.70;99.90;;;;;;5009991;28;20469;-70
2023/09/18 12:26:19;;;;;;;8.13;1.63;;;20.70;99.90;;;;;;5009693;28;20441;-69
2023/09/18 12:28:47;;;;;;;9.30;1.73;;;20.60;99.90;;;;;;5009509;28;20462;-68
2023/09/18 12:31:16;;;;;;;7.40;1.60;;;20.60;99.90;;;;;;5009755;28;20442;-69
2023/09/18 12:33:47;;;;;;;7.00;1.37;;;20.70;99.90;;;;;;5009740;28;20528;-68
2023/09/18 12:36:22;;;;;;;8.90;1.50;;;20.60;99.90;;;;;;5009717;28;20442;-67
2023/09/18 12:38:57;;;;;;;9.00;1.77;;;20.60;99.90;;;;;;5009202;28;21181;-68
2023/09/18 12:41:26;;;;;;;8.20;1.40;;;20.70;99.90;;;;;;5009603;28;20488;-68
2023/09/18 12:44:00;;;;;;;7.30;1.23;;;20.70;99.90;;;;;;5009415;28;20468;-68
2023/09/18 12:46:30;;;;;;;7.37;1.80;;;20.90;99.90;;;;;;5009045;28;20454;-66
2023/09/18 12:48:59;;;;;;;8.47;1.83;;;21.10;99.90;;;;;;5009373;28;20927;-69
2023/09/18 12:51:32;;;;;;;7.33;1.70;;;21.40;99.90;;;;;;5009491;28;21017;-69
2023/09/18 12:54:00;;;;;;;8.90;1.60;;;22.00;99.90;;;;;;5009249;28;20478;-69